createdAt,value
2019-05-15T00:05:49.512Z,1.50
2019-05-15T00:10:54.545Z,1.00
2019-05-15T00:15:59.067Z,1.42
2019-05-15T00:26:06.202Z,1.02
2019-05-15T00:31:11.041Z,1.25
2019-05-15T00:36:15.392Z,1.32
2019-05-15T00:41:19.647Z,1.27
2019-05-15T00:46:23.571Z,1.05
2019-05-15T00:51:28.509Z,1.45
2019-05-15T00:56:32.692Z,1.42
2019-05-15T01:01:38.265Z,1.12
2019-05-15T01:06:42.476Z,1.30
2019-05-15T01:11:48.756Z,1.12
2019-05-15T01:16:52.683Z,1.30
2019-05-15T01:21:58.706Z,1.15
2019-05-15T01:27:04.483Z,1.65
2019-05-15T01:32:08.549Z,1.30
2019-05-15T01:37:12.754Z,1.20
2019-05-15T01:42:18.646Z,1.27
2019-05-15T01:47:23.124Z,1.17
2019-05-15T01:52:27.940Z,1.00
2019-05-15T01:57:31.912Z,1.27
2019-05-15T02:02:38.836Z,1.05
2019-05-15T02:07:42.174Z,1.42
2019-05-15T02:12:48.042Z,1.40
2019-05-15T02:17:51.787Z,1.27
2019-05-15T02:22:56.099Z,1.50
2019-05-15T02:28:00.139Z,1.37
2019-05-15T02:33:04.217Z,1.45
2019-05-15T02:38:10.348Z,1.40
2019-05-15T02:43:14.646Z,1.80
2019-05-15T02:48:19.953Z,1.15
2019-05-15T02:53:24.401Z,1.42
2019-05-15T02:58:29.418Z,1.27
2019-05-15T03:03:33.738Z,1.37
2019-05-15T03:08:39.864Z,1.60
2019-05-15T03:13:43.530Z,1.30
2019-05-15T03:18:50.462Z,1.67
2019-05-15T03:23:53.392Z,1.30
2019-05-15T03:28:59.022Z,1.25
2019-05-15T03:34:04.066Z,1.45
2019-05-15T03:39:09.700Z,1.12
2019-05-15T03:44:14.687Z,1.50
2019-05-15T03:49:19.987Z,1.42
2019-05-15T03:54:24.451Z,1.30
2019-05-15T03:59:29.399Z,1.77
2019-05-15T04:04:34.418Z,1.52
2019-05-15T04:09:38.872Z,1.50
2019-05-15T04:14:43.484Z,1.57
2019-05-15T04:19:49.931Z,1.95
2019-05-15T04:24:54.836Z,1.45
2019-05-15T04:29:59.262Z,1.27
2019-05-15T04:35:03.684Z,1.62
2019-05-15T04:40:09.643Z,1.90
2019-05-15T04:45:14.114Z,2.00
2019-05-15T04:50:21.000Z,1.90
2019-05-15T04:55:25.107Z,2.25
2019-05-15T05:00:50.228Z,1.92
2019-05-15T05:05:54.496Z,2.05
2019-05-15T05:10:59.402Z,2.27
2019-05-15T05:16:03.731Z,1.70
2019-05-15T05:21:07.858Z,1.72
2019-05-15T05:26:12.357Z,1.82
2019-05-15T05:31:19.068Z,1.55
2019-05-15T05:36:22.549Z,1.77
2019-05-15T05:41:28.069Z,1.77
2019-05-15T05:46:32.548Z,1.80
2019-05-15T05:51:38.702Z,1.72
2019-05-15T05:56:42.985Z,1.72
2019-05-15T06:01:48.490Z,1.40
2019-05-15T06:07:05.910Z,1.50
2019-05-15T06:11:58.446Z,1.50
2019-05-15T06:17:04.832Z,1.20
2019-05-15T06:22:08.942Z,1.30
2019-05-15T06:27:13.101Z,1.30
2019-05-15T06:32:19.428Z,1.30
2019-05-15T06:37:23.361Z,0.88
2019-05-15T06:42:28.419Z,1.17
2019-05-15T06:47:32.783Z,1.15
2019-05-15T06:52:39.995Z,0.90
2019-05-15T06:57:44.102Z,1.20
2019-05-15T07:02:48.725Z,1.50
2019-05-15T07:12:58.564Z,1.12
2019-05-15T07:18:04.751Z,1.00
2019-05-15T07:23:09.519Z,0.88
2019-05-15T07:28:13.959Z,0.85
2019-05-15T07:33:28.100Z,1.07
2019-05-15T07:38:25.001Z,1.02
2019-05-15T07:43:30.392Z,0.70
2019-05-15T07:48:34.759Z,0.80
2019-05-15T07:53:39.283Z,0.70
2019-05-15T07:59:07.920Z,0.80
2019-05-15T08:04:25.096Z,0.68
2019-05-15T08:09:17.981Z,0.57
2019-05-15T08:14:28.893Z,0.78
2019-05-15T08:19:30.741Z,0.80
2019-05-15T08:24:35.195Z,0.72
2019-05-15T08:29:42.590Z,0.70
2019-05-15T08:34:49.240Z,0.90
2019-05-15T08:39:53.731Z,0.90
2019-05-15T08:45:00.928Z,0.85
2019-05-15T08:50:08.842Z,0.90
2019-05-15T08:55:14.032Z,0.80
2019-05-15T09:00:21.219Z,0.50
2019-05-15T09:05:28.141Z,0.50
2019-05-15T09:10:31.848Z,0.78
2019-05-15T09:15:41.503Z,0.70
2019-05-15T09:20:48.797Z,0.75
2019-05-15T09:25:52.523Z,0.70
2019-05-15T09:30:59.112Z,0.82
2019-05-15T09:36:03.476Z,0.60
2019-05-15T09:41:08.944Z,0.70
2019-05-15T09:46:13.468Z,0.70
2019-05-15T09:51:18.725Z,0.45
2019-05-15T09:56:23.190Z,0.50
2019-05-15T10:01:28.487Z,0.65
2019-05-15T10:06:33.107Z,0.47
2019-05-15T10:11:38.235Z,0.60
2019-05-15T10:16:43.202Z,0.70
2019-05-15T10:21:53.062Z,0.60
2019-05-15T10:26:52.988Z,0.68
2019-05-15T10:31:57.461Z,0.50
2019-05-15T10:37:01.535Z,0.60
2019-05-15T10:42:08.103Z,0.60
2019-05-15T10:47:12.087Z,0.70
2019-05-15T10:52:18.001Z,1.02
2019-05-15T10:57:22.391Z,0.80
2019-05-15T11:02:28.842Z,0.68
2019-05-15T11:07:33.148Z,0.80
2019-05-15T11:12:37.336Z,0.70
2019-05-15T11:17:41.503Z,0.80
2019-05-15T11:22:46.241Z,0.80
2019-05-15T11:32:54.451Z,0.40
2019-05-15T11:38:00.733Z,0.70
2019-05-15T11:43:04.885Z,0.55
2019-05-15T11:48:09.279Z,0.85
2019-05-15T11:53:13.389Z,0.55
2019-05-15T11:58:19.073Z,0.65
2019-05-15T12:03:24.967Z,0.88
2019-05-15T12:08:30.831Z,0.60
2019-05-15T12:13:35.186Z,0.70
2019-05-15T12:18:39.219Z,0.65
2019-05-15T12:23:43.735Z,0.70
2019-05-15T12:33:52.730Z,1.07
2019-05-15T12:38:57.202Z,1.05
2019-05-15T12:59:40.489Z,0.80
2019-05-15T13:04:31.003Z,0.80
2019-05-15T13:09:35.298Z,1.02
2019-05-15T13:14:41.694Z,0.93
2019-05-15T13:19:48.352Z,1.47
2019-05-15T13:24:53.169Z,0.80
2019-05-15T13:35:05.203Z,1.07
2019-05-15T13:40:12.378Z,1.00
2019-05-15T13:45:18.274Z,1.10
2019-05-15T13:50:22.744Z,1.10
2019-05-15T13:55:36.706Z,1.10
2019-05-15T14:00:39.279Z,0.90
2019-05-15T14:05:49.531Z,1.12
2019-05-15T14:10:52.518Z,1.00
2019-05-15T14:21:08.884Z,1.10
2019-05-15T14:26:23.974Z,1.27
2019-05-15T14:31:36.539Z,0.80
2019-05-15T14:36:43.212Z,1.02
2019-05-15T14:41:49.212Z,0.80
2019-05-15T14:46:55.496Z,0.80
2019-05-15T14:52:08.465Z,0.98
2019-05-15T14:57:05.231Z,0.85
2019-05-15T15:02:09.350Z,0.90
2019-05-15T15:07:13.420Z,0.90
2019-05-15T15:12:20.406Z,0.60
2019-05-15T15:17:24.831Z,0.50
2019-05-15T15:22:34.401Z,1.00
2019-05-15T15:27:39.003Z,0.68
2019-05-15T15:32:44.046Z,0.85
2019-05-15T15:37:50.283Z,0.85
2019-05-15T15:43:00.585Z,0.80
2019-05-15T15:48:04.677Z,0.75
2019-05-15T15:53:09.218Z,1.00
2019-05-15T16:03:20.816Z,0.65
2019-05-15T16:08:28.543Z,0.90
2019-05-15T16:13:32.932Z,0.78
2019-05-15T16:18:38.578Z,0.70
2019-05-15T16:23:42.702Z,0.90
2019-05-15T16:28:48.958Z,0.80
2019-05-15T16:33:53.573Z,0.80
2019-05-15T16:39:07.136Z,0.57
2019-05-15T16:44:05.054Z,0.68
2019-05-15T16:49:09.127Z,0.57
2019-05-15T16:54:13.536Z,0.80
2019-05-15T16:59:18.234Z,0.70
2019-05-15T17:04:22.465Z,0.78
2019-05-15T17:09:28.116Z,0.88
2019-05-15T17:14:32.340Z,0.60
2019-05-15T17:19:37.647Z,0.80
2019-05-15T17:24:41.757Z,0.90
2019-05-15T17:29:48.884Z,0.70
2019-05-15T17:34:58.518Z,0.80
2019-05-15T17:40:00.198Z,0.68
2019-05-15T17:45:04.543Z,0.70
2019-05-15T17:50:10.404Z,0.47
2019-05-15T17:55:14.598Z,0.72
2019-05-15T18:00:20.094Z,0.70
2019-05-15T18:05:25.192Z,0.60
2019-05-15T18:10:29.711Z,0.90
2019-05-15T18:15:38.769Z,0.50
2019-05-15T18:20:42.883Z,0.80
2019-05-15T18:25:49.193Z,1.27
2019-05-15T18:30:53.850Z,0.93
2019-05-15T18:35:59.116Z,0.88
2019-05-15T18:41:03.897Z,0.80
2019-05-15T18:46:09.047Z,1.00
2019-05-15T18:51:13.359Z,1.00
2019-05-15T18:56:18.710Z,1.20
2019-05-15T19:01:23.480Z,1.12
2019-05-15T19:06:29.430Z,1.00
2019-05-15T19:11:33.764Z,1.27
2019-05-15T19:16:39.288Z,1.00
2019-05-15T19:21:43.702Z,1.00
2019-05-15T19:27:09.040Z,1.00
2019-05-15T19:32:14.199Z,0.60
2019-05-15T19:37:18.533Z,1.82
2019-05-15T19:42:25.982Z,1.17
2019-05-15T19:47:30.318Z,1.30
2019-05-15T19:52:34.451Z,1.02
2019-05-15T19:57:41.636Z,0.95
2019-05-15T20:02:48.580Z,1.10
2019-05-15T20:07:52.608Z,0.90
2019-05-15T20:12:58.456Z,1.10
2019-05-15T20:19:23.077Z,1.00
2019-05-15T20:23:18.505Z,1.12
2019-05-15T20:33:28.564Z,1.37
2019-05-15T20:38:33.944Z,1.35
2019-05-15T20:43:38.516Z,1.40
2019-05-15T20:54:05.775Z,1.20
2019-05-15T20:59:09.920Z,1.20
2019-05-15T21:04:20.514Z,1.25
2019-05-15T21:09:20.481Z,1.27
2019-05-15T21:14:25.552Z,1.02
2019-05-15T21:19:29.835Z,1.30
2019-05-15T21:24:34.444Z,1.10
2019-05-15T21:29:40.577Z,1.05
2019-05-15T21:34:45.086Z,1.25
2019-05-15T21:39:49.074Z,1.02
2019-05-15T21:44:54.108Z,1.13
2019-05-15T21:49:58.652Z,1.25
2019-05-15T21:55:02.761Z,1.00
2019-05-15T22:00:13.063Z,1.50
2019-05-15T22:05:19.039Z,1.42
2019-05-15T22:10:22.976Z,1.25
2019-05-15T22:15:29.445Z,1.12
2019-05-15T22:20:33.862Z,1.10
2019-05-15T22:25:38.562Z,1.40
2019-05-15T22:30:43.095Z,1.30
2019-05-15T22:35:48.798Z,1.20
2019-05-15T22:40:53.239Z,1.42
2019-05-15T22:45:58.815Z,1.05
2019-05-15T22:51:03.619Z,1.20
2019-05-15T22:56:09.329Z,1.35
2019-05-15T23:01:14.224Z,1.17
2019-05-15T23:11:24.643Z,1.30
2019-05-15T23:16:28.651Z,1.60
2019-05-15T23:21:33.082Z,1.25
2019-05-15T23:26:38.763Z,1.37
2019-05-15T23:31:43.520Z,1.30
2019-05-15T23:36:48.352Z,1.65
2019-05-15T23:41:52.494Z,1.82
2019-05-15T23:46:59.536Z,1.50
2019-05-15T23:52:04.149Z,1.65
